createdAt,value
2022-09-12T00:02:22.354Z,100168.53
2022-09-12T00:05:26.165Z,100177.50
2022-09-12T00:08:28.642Z,100181.66
2022-09-12T00:11:31.607Z,100169.91
2022-09-12T00:14:34.149Z,100166.81
2022-09-12T00:17:38.440Z,100171.69
2022-09-12T00:20:46.595Z,100168.84
2022-09-12T00:23:50.661Z,100167.19
2022-09-12T00:26:53.298Z,100180.94
2022-09-12T00:29:56.314Z,100175.41
2022-09-12T00:32:58.884Z,100169.00
2022-09-12T00:36:05.723Z,100172.50
2022-09-12T00:39:09.216Z,100174.09
2022-09-12T00:42:12.693Z,100177.59
2022-09-12T00:45:26.475Z,100178.78
2022-09-12T00:48:37.285Z,100183.69
2022-09-12T00:52:03.237Z,100180.84
2022-09-12T00:55:21.098Z,100175.44
2022-09-12T00:58:28.739Z,100194.13
2022-09-12T01:01:32.913Z,100184.91
2022-09-12T01:04:38.691Z,100180.78
2022-09-12T01:07:42.801Z,100180.53
2022-09-12T01:10:46.159Z,100168.47
2022-09-12T01:13:50.623Z,100169.47
2022-09-12T01:16:53.235Z,100170.50
2022-09-12T01:20:17.694Z,100170.31
2022-09-12T01:23:45.969Z,100158.38
2022-09-12T01:27:16.631Z,100156.69
2022-09-12T01:30:28.117Z,100165.94
2022-09-12T01:33:51.860Z,100157.31
2022-09-12T01:37:19.446Z,100148.69
2022-09-12T01:40:25.239Z,100175.38
2022-09-12T01:43:37.684Z,100165.13
2022-09-12T01:47:03.192Z,100172.69
2022-09-12T01:50:18.743Z,100173.06
2022-09-12T01:53:27.469Z,100178.12
2022-09-12T01:56:35.615Z,100175.72
2022-09-12T01:59:47.498Z,100178.12
2022-09-12T02:02:57.391Z,100176.44
2022-09-12T02:06:06.591Z,100167.19
2022-09-12T02:09:18.592Z,100175.50
2022-09-12T02:12:27.595Z,100168.34
2022-09-12T02:15:38.410Z,100165.09
2022-09-12T02:18:46.692Z,100168.44
2022-09-12T02:21:55.903Z,100165.13
2022-09-12T02:25:00.878Z,100167.00
2022-09-12T02:28:27.725Z,100162.69
2022-09-12T02:31:37.409Z,100162.47
2022-09-12T02:35:03.320Z,100169.53
2022-09-12T02:38:29.378Z,100169.56
2022-09-12T02:41:32.010Z,100175.78
2022-09-12T02:44:36.316Z,100188.50
2022-09-12T02:47:53.888Z,100182.34
2022-09-12T02:50:57.431Z,100185.41
2022-09-12T02:54:00.404Z,100189.44
2022-09-12T02:57:03.339Z,100192.91
2022-09-12T03:00:07.372Z,100194.72
2022-09-12T03:03:22.358Z,100193.91
2022-09-12T03:06:40.966Z,100187.91
2022-09-12T03:10:51.761Z,100186.56
2022-09-12T03:13:54.099Z,100187.06
2022-09-12T03:17:04.599Z,100183.31
2022-09-12T03:20:20.022Z,100186.16
2022-09-12T03:23:40.518Z,100193.66
2022-09-12T03:26:48.169Z,100193.00
2022-09-12T03:29:52.084Z,100189.06
2022-09-12T03:32:55.379Z,100192.44
2022-09-12T03:35:58.813Z,100200.25
2022-09-12T03:39:01.258Z,100194.03
2022-09-12T03:42:04.142Z,100193.94
2022-09-12T03:45:07.647Z,100194.56
2022-09-12T03:48:10.386Z,100193.37
2022-09-12T03:51:12.931Z,100195.88
2022-09-12T03:54:15.796Z,100191.38
2022-09-12T03:57:18.738Z,100192.63
2022-09-12T04:00:22.659Z,100194.59
2022-09-12T04:03:25.503Z,100191.50
2022-09-12T04:06:28.004Z,100192.06
2022-09-12T04:09:30.801Z,100185.72
2022-09-12T04:12:33.356Z,100202.66
2022-09-12T04:15:36.032Z,100203.88
2022-09-12T04:18:39.070Z,100207.66
2022-09-12T04:21:41.880Z,100197.38
2022-09-12T04:24:44.359Z,100204.88
2022-09-12T04:27:47.107Z,100203.22
2022-09-12T04:30:50.120Z,100202.13
2022-09-12T04:33:57.904Z,100206.47
2022-09-12T04:37:00.477Z,100207.84
2022-09-12T04:40:03.440Z,100211.78
2022-09-12T04:43:08.456Z,100202.34
2022-09-12T04:46:16.661Z,100206.06
2022-09-12T04:49:19.513Z,100205.69
2022-09-12T04:52:22.362Z,100205.31
2022-09-12T04:55:25.345Z,100201.81
2022-09-12T04:58:28.128Z,100214.78
2022-09-12T05:01:30.678Z,100216.22
2022-09-12T05:04:33.632Z,100210.47
2022-09-12T05:07:36.185Z,100214.00
2022-09-12T05:10:38.995Z,100205.63
2022-09-12T05:13:41.747Z,100209.56
2022-09-12T05:16:49.055Z,100212.50
2022-09-12T05:19:52.174Z,100207.41
2022-09-12T05:22:55.847Z,100213.81
2022-09-12T05:25:59.378Z,100217.34
2022-09-12T05:29:05.231Z,100225.09
2022-09-12T05:32:07.719Z,100235.47
2022-09-12T05:35:11.175Z,100230.94
2022-09-12T05:38:13.612Z,100246.41
2022-09-12T05:41:24.255Z,100257.50
2022-09-12T05:44:28.223Z,100253.19
2022-09-12T05:47:31.259Z,100251.78
2022-09-12T05:50:33.815Z,100250.50
2022-09-12T05:53:38.270Z,100256.69
2022-09-12T05:56:42.810Z,100259.88
2022-09-12T05:59:45.965Z,100257.44
2022-09-12T06:02:53.302Z,100254.72
2022-09-12T06:05:56.146Z,100254.47
2022-09-12T06:09:00.697Z,100250.25
2022-09-12T06:12:03.977Z,100249.59
2022-09-12T06:15:08.066Z,100264.59
2022-09-12T06:18:10.987Z,100257.03
2022-09-12T06:21:14.480Z,100266.34
2022-09-12T06:24:18.619Z,100264.97
2022-09-12T06:27:21.100Z,100265.31
2022-09-12T06:30:25.542Z,100260.66
2022-09-12T06:33:28.187Z,100262.25
2022-09-12T06:36:45.825Z,100268.41
2022-09-12T06:39:48.718Z,100268.84
2022-09-12T06:42:51.432Z,100277.03
2022-09-12T06:46:02.532Z,100272.09
2022-09-12T06:49:05.276Z,100278.22
2022-09-12T06:52:07.773Z,100276.88
2022-09-12T06:55:10.711Z,100269.09
2022-09-12T06:58:13.194Z,100278.28
2022-09-12T07:01:23.563Z,100275.75
2022-09-12T07:04:26.244Z,100278.91
2022-09-12T07:07:29.900Z,100264.44
2022-09-12T07:10:32.541Z,100270.13
2022-09-12T07:13:35.290Z,100275.13
2022-09-12T07:16:38.172Z,100285.91
2022-09-12T07:19:41.501Z,100283.78
2022-09-12T07:22:43.983Z,100281.84
2022-09-12T07:25:57.543Z,100283.50
2022-09-12T07:29:25.256Z,100282.59
2022-09-12T07:32:23.827Z,100286.44
2022-09-12T07:35:26.333Z,100288.22
2022-09-12T07:38:29.997Z,100293.50
2022-09-12T07:41:36.190Z,100288.63
2022-09-12T07:44:39.034Z,100296.75
2022-09-12T07:47:41.502Z,100297.91
2022-09-12T07:50:45.192Z,100298.31
2022-09-12T07:53:49.372Z,100297.31
2022-09-12T07:56:52.383Z,100295.22
2022-09-12T07:59:54.933Z,100304.63
2022-09-12T08:02:57.785Z,100292.56
2022-09-12T08:06:12.641Z,100290.72
2022-09-12T08:09:17.425Z,100292.25
2022-09-12T08:12:20.440Z,100290.47
2022-09-12T08:15:22.908Z,100299.28
2022-09-12T08:18:30.334Z,100303.94
2022-09-12T08:21:34.122Z,100295.22
2022-09-12T08:24:37.221Z,100298.19
2022-09-12T08:27:39.778Z,100295.19
2022-09-12T08:30:42.526Z,100294.34
2022-09-12T08:33:45.302Z,100294.87
2022-09-12T08:36:48.214Z,100289.78
2022-09-12T08:39:52.735Z,100285.44
2022-09-12T08:43:26.079Z,100287.72
2022-09-12T08:46:50.440Z,100280.28
2022-09-12T08:50:05.610Z,100278.78
2022-09-12T08:53:21.865Z,100286.75
2022-09-12T08:56:31.542Z,100288.63
2022-09-12T08:59:42.161Z,100278.69
2022-09-12T09:03:00.137Z,100280.22
2022-09-12T09:06:23.887Z,100269.56
2022-09-12T09:09:59.175Z,100273.78
2022-09-12T09:13:35.929Z,100271.31
2022-09-12T09:16:41.458Z,100270.16
2022-09-12T09:19:50.918Z,100263.19
2022-09-12T09:23:15.419Z,100266.06
2022-09-12T09:26:32.697Z,100264.56
2022-09-12T09:29:41.919Z,100257.09
2022-09-12T09:32:50.463Z,100271.53
2022-09-12T09:36:14.913Z,100273.34
2022-09-12T09:39:28.620Z,100259.97
2022-09-12T09:43:04.871Z,100264.34
2022-09-12T09:46:08.118Z,100270.56
2022-09-12T09:49:14.643Z,100266.06
2022-09-12T09:52:29.496Z,100264.37
2022-09-12T09:55:42.398Z,100272.81
2022-09-12T09:58:45.124Z,100273.03
2022-09-12T10:01:54.677Z,100268.97
2022-09-12T10:04:59.793Z,100260.09
2022-09-12T10:08:04.848Z,100267.91
2022-09-12T10:11:20.115Z,100260.13
2022-09-12T10:14:28.481Z,100257.44
2022-09-12T10:17:44.457Z,100260.00
2022-09-12T10:20:47.075Z,100259.19
2022-09-12T10:23:59.952Z,100252.81
2022-09-12T10:27:20.275Z,100268.66
2022-09-12T10:30:27.982Z,100265.53
2022-09-12T10:33:37.429Z,100270.91
2022-09-12T10:36:40.845Z,100268.75
2022-09-12T10:39:53.466Z,100266.06
2022-09-12T10:43:01.059Z,100258.34
2022-09-12T10:46:15.994Z,100260.97
2022-09-12T10:49:25.832Z,100267.06
2022-09-12T10:52:28.547Z,100260.25
2022-09-12T10:55:34.983Z,100260.78
2022-09-12T10:58:53.709Z,100255.91
2022-09-12T11:02:30.097Z,100249.72
2022-09-12T11:05:45.986Z,100245.47
2022-09-12T11:09:15.863Z,100249.69
2022-09-12T11:12:43.692Z,100248.97
2022-09-12T11:16:07.041Z,100250.47
2022-09-12T11:19:26.131Z,100238.59
2022-09-12T11:22:41.031Z,100237.16
2022-09-12T11:26:18.565Z,100245.00
2022-09-12T11:29:52.627Z,100231.75
2022-09-12T11:33:02.450Z,100235.22
2022-09-12T11:36:13.708Z,100235.25
2022-09-12T11:39:21.684Z,100242.22
2022-09-12T11:42:35.668Z,100239.91
2022-09-12T11:45:44.704Z,100229.03
2022-09-12T11:48:59.461Z,100232.34
2022-09-12T11:52:11.025Z,100236.91
2022-09-12T11:55:19.443Z,100233.22
2022-09-12T11:58:26.648Z,100225.12
2022-09-12T12:01:42.941Z,100236.84
2022-09-12T12:05:17.341Z,100242.09
2022-09-12T12:08:25.203Z,100234.38
2022-09-12T12:11:39.857Z,100232.63
2022-09-12T12:14:46.757Z,100228.16
2022-09-12T12:18:03.502Z,100226.47
2022-09-12T12:21:42.302Z,100225.91
2022-09-12T12:25:21.572Z,100222.97
2022-09-12T12:28:43.128Z,100218.09
2022-09-12T12:32:02.103Z,100210.00
2022-09-12T12:35:42.365Z,100204.28
2022-09-12T12:38:45.311Z,100210.50
2022-09-12T12:41:47.920Z,100206.81
2022-09-12T12:44:51.593Z,100221.94
2022-09-12T12:47:58.150Z,100212.81
2022-09-12T12:51:28.944Z,100221.19
2022-09-12T12:54:49.607Z,100213.41
2022-09-12T12:57:55.133Z,100217.66
2022-09-12T13:01:09.621Z,100203.81
2022-09-12T13:04:17.936Z,100203.75
2022-09-12T13:07:33.663Z,100215.12
2022-09-12T13:10:37.474Z,100199.87
2022-09-12T13:13:58.522Z,100215.53
2022-09-12T13:17:06.386Z,100221.66
2022-09-12T13:20:29.643Z,100203.59
2022-09-12T13:23:35.220Z,100215.12
2022-09-12T13:26:43.926Z,100208.94
2022-09-12T13:29:47.379Z,100205.63
2022-09-12T13:32:50.167Z,100195.38
2022-09-12T13:36:27.159Z,100201.12
2022-09-12T13:39:38.233Z,100195.09
2022-09-12T13:43:05.671Z,100192.38
2022-09-12T13:46:10.153Z,100188.25
2022-09-12T13:49:35.231Z,100172.69
2022-09-12T13:52:38.718Z,100185.41
2022-09-12T13:55:46.159Z,100182.03
2022-09-12T13:58:57.673Z,100171.72
2022-09-12T14:02:00.668Z,100167.53
2022-09-12T14:05:24.244Z,100174.41
2022-09-12T14:08:26.995Z,100162.72
2022-09-12T14:11:30.989Z,100179.50
2022-09-12T14:14:36.563Z,100162.41
2022-09-12T14:17:43.111Z,100154.06
2022-09-12T14:20:45.784Z,100155.19
2022-09-12T14:23:49.291Z,100148.34
2022-09-12T14:26:56.680Z,100151.66
2022-09-12T14:30:09.111Z,100156.84
2022-09-12T14:33:11.597Z,100158.03
2022-09-12T14:36:52.834Z,100164.66
2022-09-12T14:39:56.273Z,100159.47
2022-09-12T14:43:01.213Z,100154.91
2022-09-12T14:46:20.437Z,100154.66
2022-09-12T14:49:36.608Z,100160.22
2022-09-12T14:52:40.130Z,100156.59
2022-09-12T14:55:46.434Z,100152.91
2022-09-12T14:58:49.745Z,100162.97
2022-09-12T15:02:20.665Z,100160.09
2022-09-12T15:05:26.498Z,100161.91
2022-09-12T15:08:30.475Z,100158.41
2022-09-12T15:11:33.920Z,100157.19
2022-09-12T15:14:36.899Z,100155.94
2022-09-12T15:17:39.486Z,100144.94
2022-09-12T15:20:46.356Z,100143.22
2022-09-12T15:23:50.777Z,100150.59
2022-09-12T15:26:53.733Z,100146.06
2022-09-12T15:29:56.382Z,100146.19
2022-09-12T15:33:00.117Z,100148.31
2022-09-12T15:36:02.881Z,100136.81
2022-09-12T15:39:05.639Z,100146.09
2022-09-12T15:42:11.088Z,100150.44
2022-09-12T15:45:21.910Z,100141.63
2022-09-12T15:48:24.572Z,100141.75
2022-09-12T15:51:27.768Z,100139.03
2022-09-12T15:54:30.398Z,100140.25
2022-09-12T15:57:33.110Z,100141.06
2022-09-12T16:00:35.676Z,100140.12
2022-09-12T16:03:38.496Z,100144.69
2022-09-12T16:06:40.936Z,100138.97
2022-09-12T16:09:43.681Z,100145.87
2022-09-12T16:12:46.268Z,100159.78
2022-09-12T16:15:49.170Z,100146.81
2022-09-12T16:18:51.783Z,100145.28
2022-09-12T16:21:54.506Z,100153.25
2022-09-12T16:24:56.963Z,100154.19
2022-09-12T16:28:01.523Z,100152.75
2022-09-12T16:31:05.978Z,100152.16
2022-09-12T16:34:08.832Z,100151.34
2022-09-12T16:37:11.550Z,100157.41
2022-09-12T16:40:17.828Z,100148.78
2022-09-12T16:43:20.458Z,100148.94
2022-09-12T16:46:30.573Z,100146.78
2022-09-12T16:49:33.115Z,100148.84
2022-09-12T16:52:35.859Z,100143.56
2022-09-12T16:55:38.332Z,100139.50
2022-09-12T16:58:42.360Z,100143.62
2022-09-12T17:01:45.309Z,100133.78
2022-09-12T17:04:48.841Z,100141.13
2022-09-12T17:07:51.961Z,100140.38
2022-09-12T17:11:06.509Z,100145.47
2022-09-12T17:14:10.276Z,100153.97
2022-09-12T17:17:13.099Z,100154.81
2022-09-12T17:20:15.641Z,100159.84
2022-09-12T17:23:18.359Z,100157.16
2022-09-12T17:26:21.289Z,100159.84
2022-09-12T17:29:24.030Z,100161.19
2022-09-12T17:32:26.608Z,100165.66
2022-09-12T17:35:29.406Z,100164.09
2022-09-12T17:38:34.699Z,100173.28
2022-09-12T17:41:37.754Z,100174.34
2022-09-12T17:44:40.525Z,100179.81
2022-09-12T17:47:43.287Z,100186.06
2022-09-12T17:50:46.625Z,100184.56
2022-09-12T17:53:49.360Z,100195.38
2022-09-12T17:56:52.247Z,100190.50
2022-09-12T17:59:55.011Z,100195.00
2022-09-12T18:02:57.996Z,100200.13
2022-09-12T18:06:01.022Z,100204.84
2022-09-12T18:09:06.596Z,100205.28
2022-09-12T18:12:09.513Z,100206.06
2022-09-12T18:15:12.037Z,100205.47
2022-09-12T18:18:14.752Z,100204.72
2022-09-12T18:21:17.925Z,100215.69
2022-09-12T18:24:21.041Z,100217.34
2022-09-12T18:27:23.630Z,100215.56
2022-09-12T18:30:26.808Z,100224.53
2022-09-12T18:33:29.312Z,100225.41
2022-09-12T18:36:32.360Z,100229.94
2022-09-12T18:39:34.912Z,100233.94
2022-09-12T18:42:37.724Z,100236.25
2022-09-12T18:45:40.409Z,100239.97
2022-09-12T18:48:44.907Z,100237.06
2022-09-12T18:51:47.437Z,100234.84
2022-09-12T18:54:50.292Z,100225.97
2022-09-12T18:57:53.003Z,100228.47
2022-09-12T19:00:56.143Z,100221.88
2022-09-12T19:03:59.235Z,100236.31
2022-09-12T19:07:02.223Z,100234.03
2022-09-12T19:10:05.189Z,100236.53
2022-09-12T19:13:07.943Z,100235.06
2022-09-12T19:16:13.571Z,100234.66
2022-09-12T19:19:16.917Z,100234.69
2022-09-12T19:22:19.395Z,100222.50
2022-09-12T19:25:22.273Z,100229.31
2022-09-12T19:28:24.869Z,100229.53
2022-09-12T19:31:27.769Z,100238.78
2022-09-12T19:34:30.405Z,100238.56
2022-09-12T19:37:33.120Z,100236.94
2022-09-12T19:40:36.444Z,100234.88
2022-09-12T19:43:40.065Z,100237.97
2022-09-12T19:46:42.777Z,100228.50
2022-09-12T19:49:45.783Z,100227.69
2022-09-12T19:52:48.287Z,100221.50
2022-09-12T19:55:51.070Z,100227.03
2022-09-12T19:58:56.739Z,100224.16
2022-09-12T20:02:00.044Z,100229.31
2022-09-12T20:05:02.897Z,100237.53
2022-09-12T20:08:05.412Z,100233.41
2022-09-12T20:11:11.299Z,100225.41
2022-09-12T20:14:14.079Z,100213.87
2022-09-12T20:17:16.911Z,100223.13
2022-09-12T20:20:19.381Z,100209.97
2022-09-12T20:23:23.577Z,100215.31
2022-09-12T20:26:26.648Z,100224.38
2022-09-12T20:29:29.458Z,100228.09
2022-09-12T20:32:31.961Z,100228.88
2022-09-12T20:35:34.747Z,100234.19
2022-09-12T20:38:37.337Z,100240.06
2022-09-12T20:41:40.441Z,100235.69
2022-09-12T20:44:42.899Z,100231.69
2022-09-12T20:47:45.740Z,100226.66
2022-09-12T20:50:48.225Z,100236.78
2022-09-12T20:53:55.229Z,100240.03
2022-09-12T20:56:57.724Z,100242.78
2022-09-12T21:00:00.510Z,100247.19
2022-09-12T21:03:03.557Z,100254.34
2022-09-12T21:06:08.238Z,100249.12
2022-09-12T21:09:10.880Z,100255.25
2022-09-12T21:12:13.608Z,100251.84
2022-09-12T21:15:16.038Z,100255.00
2022-09-12T21:18:18.761Z,100254.25
2022-09-12T21:21:21.425Z,100250.69
2022-09-12T21:24:24.726Z,100254.88
2022-09-12T21:27:27.805Z,100259.50
2022-09-12T21:30:30.508Z,100268.25
2022-09-12T21:33:32.982Z,100271.13
2022-09-12T21:36:35.643Z,100271.06
2022-09-12T21:39:38.111Z,100276.72
2022-09-12T21:42:40.801Z,100280.31
2022-09-12T21:45:43.159Z,100280.13
2022-09-12T21:48:45.993Z,100291.34
2022-09-12T21:51:48.536Z,100297.50
2022-09-12T21:54:51.317Z,100307.66
2022-09-12T21:57:54.798Z,100299.72
2022-09-12T22:00:57.540Z,100304.56
2022-09-12T22:04:00.443Z,100303.09
2022-09-12T22:07:02.991Z,100308.25
2022-09-12T22:10:06.463Z,100307.53
2022-09-12T22:13:09.282Z,100301.47
2022-09-12T22:16:12.335Z,100302.59
2022-09-12T22:19:15.134Z,100297.97
2022-09-12T22:22:36.358Z,100292.22
2022-09-12T22:25:39.313Z,100291.13
2022-09-12T22:28:43.066Z,100291.03
2022-09-12T22:31:45.609Z,100295.91
2022-09-12T22:34:48.407Z,100301.06
2022-09-12T22:37:50.981Z,100307.28
2022-09-12T22:40:53.996Z,100302.25
2022-09-12T22:43:57.173Z,100305.66
2022-09-12T22:47:00.110Z,100307.75
2022-09-12T22:50:03.662Z,100299.56
2022-09-12T22:53:06.432Z,100308.44
2022-09-12T22:56:09.435Z,100313.84
2022-09-12T22:59:12.177Z,100299.81
2022-09-12T23:02:14.672Z,100303.47
2022-09-12T23:05:17.383Z,100311.31
2022-09-12T23:08:19.849Z,100304.44
2022-09-12T23:11:23.270Z,100308.63
2022-09-12T23:14:25.698Z,100306.66
2022-09-12T23:17:28.557Z,100298.59
2022-09-12T23:20:31.263Z,100292.97
2022-09-12T23:23:35.358Z,100299.28
2022-09-12T23:26:37.833Z,100293.47
2022-09-12T23:29:40.517Z,100293.81
2022-09-12T23:32:42.965Z,100294.47
2022-09-12T23:35:46.463Z,100294.47
2022-09-12T23:38:49.637Z,100293.88
2022-09-12T23:41:52.381Z,100288.25
2022-09-12T23:44:54.926Z,100287.97
2022-09-12T23:47:57.665Z,100285.84
2022-09-12T23:51:00.597Z,100281.88
2022-09-12T23:54:03.537Z,100298.16
2022-09-12T23:57:06.177Z,100303.19
